sensor_id;sensor_type;location;lat;lon;timestamp;P1;durP1;ratioP1;P2;durP2;ratioP2
21233;SDS011;10774;42.178;26.578;2022-09-09T00:00:26;4.05;;;2.17;;
21233;SDS011;10774;42.178;26.578;2022-09-09T00:03:11;4.50;;;2.53;;
21233;SDS011;10774;42.178;26.578;2022-09-09T00:08:21;2.58;;;1.90;;
21233;SDS011;10774;42.178;26.578;2022-09-09T00:10:58;4.07;;;2.20;;
21233;SDS011;10774;42.178;26.578;2022-09-09T00:16:23;5.32;;;2.10;;
21233;SDS011;10774;42.178;26.578;2022-09-09T00:24:24;4.30;;;1.75;;
21233;SDS011;10774;42.178;26.578;2022-09-09T00:26:56;2.88;;;1.85;;
21233;SDS011;10774;42.178;26.578;2022-09-09T00:32:00;2.45;;;2.00;;
21233;SDS011;10774;42.178;26.578;2022-09-09T00:34:36;4.95;;;1.95;;
21233;SDS011;10774;42.178;26.578;2022-09-09T00:39:44;2.55;;;1.95;;
21233;SDS011;10774;42.178;26.578;2022-09-09T00:42:15;4.95;;;2.45;;
21233;SDS011;10774;42.178;26.578;2022-09-09T00:50:25;4.65;;;2.38;;
21233;SDS011;10774;42.178;26.578;2022-09-09T00:56:09;5.18;;;2.47;;
21233;SDS011;10774;42.178;26.578;2022-09-09T00:58:40;4.95;;;2.92;;
21233;SDS011;10774;42.178;26.578;2022-09-09T01:03:51;6.43;;;2.55;;
21233;SDS011;10774;42.178;26.578;2022-09-09T01:17:03;7.30;;;2.80;;
21233;SDS011;10774;42.178;26.578;2022-09-09T01:19:45;6.15;;;2.22;;
21233;SDS011;10774;42.178;26.578;2022-09-09T01:28:25;3.50;;;2.35;;
21233;SDS011;10774;42.178;26.578;2022-09-09T01:30:52;3.10;;;2.38;;
21233;SDS011;10774;42.178;26.578;2022-09-09T01:33:20;3.55;;;2.25;;
21233;SDS011;10774;42.178;26.578;2022-09-09T01:35:50;3.50;;;2.30;;
21233;SDS011;10774;42.178;26.578;2022-09-09T01:38:25;6.47;;;2.25;;
21233;SDS011;10774;42.178;26.578;2022-09-09T01:40:52;3.35;;;2.40;;
21233;SDS011;10774;42.178;26.578;2022-09-09T01:43:22;8.80;;;2.78;;
21233;SDS011;10774;42.178;26.578;2022-09-09T01:45:51;3.60;;;2.53;;
21233;SDS011;10774;42.178;26.578;2022-09-09T01:48:21;5.90;;;2.65;;
21233;SDS011;10774;42.178;26.578;2022-09-09T01:50:48;7.07;;;2.55;;
21233;SDS011;10774;42.178;26.578;2022-09-09T01:53:14;6.32;;;2.45;;
21233;SDS011;10774;42.178;26.578;2022-09-09T01:55:43;3.83;;;2.70;;
21233;SDS011;10774;42.178;26.578;2022-09-09T01:58:27;4.30;;;2.40;;
21233;SDS011;10774;42.178;26.578;2022-09-09T02:03:50;3.28;;;2.35;;
21233;SDS011;10774;42.178;26.578;2022-09-09T02:07:00;5.43;;;2.08;;
21233;SDS011;10774;42.178;26.578;2022-09-09T02:09:10;3.55;;;2.30;;
21233;SDS011;10774;42.178;26.578;2022-09-09T02:11:37;4.70;;;2.20;;
21233;SDS011;10774;42.178;26.578;2022-09-09T02:14:08;5.90;;;2.40;;
21233;SDS011;10774;42.178;26.578;2022-09-09T02:16:38;3.70;;;2.45;;
21233;SDS011;10774;42.178;26.578;2022-09-09T02:19:17;5.75;;;2.17;;
21233;SDS011;10774;42.178;26.578;2022-09-09T02:21:48;5.78;;;2.75;;
21233;SDS011;10774;42.178;26.578;2022-09-09T02:24:15;5.15;;;2.30;;
21233;SDS011;10774;42.178;26.578;2022-09-09T02:26:41;16.25;;;9.90;;
21233;SDS011;10774;42.178;26.578;2022-09-09T02:29:14;6.85;;;3.05;;
21233;SDS011;10774;42.178;26.578;2022-09-09T02:31:44;3.85;;;2.53;;
21233;SDS011;10774;42.178;26.578;2022-09-09T02:34:12;5.00;;;2.15;;
21233;SDS011;10774;42.178;26.578;2022-09-09T02:36:40;5.60;;;2.35;;
21233;SDS011;10774;42.178;26.578;2022-09-09T02:39:10;3.88;;;2.25;;
21233;SDS011;10774;42.178;26.578;2022-09-09T02:41:37;4.82;;;2.45;;
21233;SDS011;10774;42.178;26.578;2022-09-09T02:44:05;3.35;;;2.30;;
21233;SDS011;10774;42.178;26.578;2022-09-09T02:46:47;5.28;;;2.30;;
21233;SDS011;10774;42.178;26.578;2022-09-09T02:49:19;5.75;;;2.30;;
21233;SDS011;10774;42.178;26.578;2022-09-09T02:54:32;3.97;;;2.22;;
21233;SDS011;10774;42.178;26.578;2022-09-09T02:57:11;4.72;;;2.53;;
21233;SDS011;10774;42.178;26.578;2022-09-09T02:59:41;2.78;;;2.13;;
21233;SDS011;10774;42.178;26.578;2022-09-09T03:02:09;3.58;;;2.10;;
21233;SDS011;10774;42.178;26.578;2022-09-09T03:04:36;4.10;;;2.33;;
21233;SDS011;10774;42.178;26.578;2022-09-09T03:07:02;3.65;;;2.42;;
21233;SDS011;10774;42.178;26.578;2022-09-09T03:09:28;2.70;;;2.15;;
21233;SDS011;10774;42.178;26.578;2022-09-09T03:11:54;6.70;;;2.47;;
21233;SDS011;10774;42.178;26.578;2022-09-09T03:14:20;5.57;;;2.40;;
21233;SDS011;10774;42.178;26.578;2022-09-09T03:16:49;2.88;;;2.30;;
21233;SDS011;10774;42.178;26.578;2022-09-09T03:19:18;7.30;;;2.25;;
21233;SDS011;10774;42.178;26.578;2022-09-09T03:21:47;4.15;;;2.17;;
21233;SDS011;10774;42.178;26.578;2022-09-09T03:24:14;2.67;;;2.38;;
21233;SDS011;10774;42.178;26.578;2022-09-09T03:26:40;6.53;;;2.50;;
21233;SDS011;10774;42.178;26.578;2022-09-09T03:29:09;4.95;;;2.33;;
21233;SDS011;10774;42.178;26.578;2022-09-09T03:31:37;3.35;;;2.05;;
21233;SDS011;10774;42.178;26.578;2022-09-09T03:34:04;2.53;;;2.33;;
21233;SDS011;10774;42.178;26.578;2022-09-09T03:36:30;6.32;;;2.50;;
21233;SDS011;10774;42.178;26.578;2022-09-09T03:38:56;2.92;;;2.40;;
21233;SDS011;10774;42.178;26.578;2022-09-09T03:41:22;4.05;;;2.55;;
21233;SDS011;10774;42.178;26.578;2022-09-09T03:43:52;3.53;;;2.58;;
21233;SDS011;10774;42.178;26.578;2022-09-09T03:46:19;3.40;;;2.50;;
21233;SDS011;10774;42.178;26.578;2022-09-09T03:48:48;2.55;;;2.25;;
21233;SDS011;10774;42.178;26.578;2022-09-09T03:51:14;4.22;;;2.72;;
21233;SDS011;10774;42.178;26.578;2022-09-09T03:53:41;4.80;;;2.90;;
21233;SDS011;10774;42.178;26.578;2022-09-09T03:56:07;7.47;;;2.75;;
21233;SDS011;10774;42.178;26.578;2022-09-09T03:58:34;2.95;;;2.20;;
21233;SDS011;10774;42.178;26.578;2022-09-09T04:01:05;4.25;;;2.50;;
21233;SDS011;10774;42.178;26.578;2022-09-09T04:03:33;5.55;;;2.47;;
21233;SDS011;10774;42.178;26.578;2022-09-09T04:06:00;4.78;;;2.30;;
21233;SDS011;10774;42.178;26.578;2022-09-09T04:08:28;4.65;;;2.45;;
21233;SDS011;10774;42.178;26.578;2022-09-09T04:10:55;8.20;;;2.85;;
21233;SDS011;10774;42.178;26.578;2022-09-09T04:13:23;8.68;;;2.78;;
21233;SDS011;10774;42.178;26.578;2022-09-09T04:15:53;8.52;;;3.17;;
21233;SDS011;10774;42.178;26.578;2022-09-09T04:18:20;8.95;;;3.70;;
21233;SDS011;10774;42.178;26.578;2022-09-09T04:20:46;10.73;;;3.00;;
21233;SDS011;10774;42.178;26.578;2022-09-09T04:23:13;10.27;;;3.95;;
21233;SDS011;10774;42.178;26.578;2022-09-09T04:25:42;10.25;;;4.22;;
21233;SDS011;10774;42.178;26.578;2022-09-09T04:28:09;9.38;;;3.35;;
21233;SDS011;10774;42.178;26.578;2022-09-09T04:30:35;14.30;;;3.72;;
21233;SDS011;10774;42.178;26.578;2022-09-09T04:33:01;8.63;;;3.33;;
21233;SDS011;10774;42.178;26.578;2022-09-09T04:35:27;9.57;;;3.45;;
21233;SDS011;10774;42.178;26.578;2022-09-09T04:37:52;10.10;;;3.53;;
21233;SDS011;10774;42.178;26.578;2022-09-09T04:40:18;11.70;;;3.60;;
21233;SDS011;10774;42.178;26.578;2022-09-09T04:42:43;11.60;;;4.68;;
21233;SDS011;10774;42.178;26.578;2022-09-09T04:45:09;21.45;;;9.13;;
21233;SDS011;10774;42.178;26.578;2022-09-09T04:47:36;35.40;;;20.13;;
21233;SDS011;10774;42.178;26.578;2022-09-09T04:50:01;31.45;;;15.13;;
21233;SDS011;10774;42.178;26.578;2022-09-09T04:52:27;25.70;;;11.57;;
21233;SDS011;10774;42.178;26.578;2022-09-09T04:54:53;13.32;;;4.82;;
21233;SDS011;10774;42.178;26.578;2022-09-09T04:57:19;9.02;;;4.75;;
21233;SDS011;10774;42.178;26.578;2022-09-09T04:59:45;10.15;;;4.75;;
21233;SDS011;10774;42.178;26.578;2022-09-09T05:02:10;12.95;;;6.55;;
21233;SDS011;10774;42.178;26.578;2022-09-09T05:04:36;18.27;;;8.70;;
21233;SDS011;10774;42.178;26.578;2022-09-09T05:07:02;24.50;;;9.73;;
21233;SDS011;10774;42.178;26.578;2022-09-09T05:09:27;16.55;;;9.90;;
21233;SDS011;10774;42.178;26.578;2022-09-09T05:11:52;20.33;;;11.00;;
21233;SDS011;10774;42.178;26.578;2022-09-09T05:14:18;19.67;;;9.98;;
21233;SDS011;10774;42.178;26.578;2022-09-09T05:16:46;19.15;;;8.63;;
21233;SDS011;10774;42.178;26.578;2022-09-09T05:19:12;14.00;;;6.80;;
21233;SDS011;10774;42.178;26.578;2022-09-09T05:21:37;12.02;;;4.38;;
21233;SDS011;10774;42.178;26.578;2022-09-09T05:24:03;6.32;;;3.47;;
21233;SDS011;10774;42.178;26.578;2022-09-09T05:26:29;7.38;;;3.30;;
21233;SDS011;10774;42.178;26.578;2022-09-09T05:28:54;6.72;;;4.53;;
21233;SDS011;10774;42.178;26.578;2022-09-09T05:31:20;8.55;;;3.70;;
21233;SDS011;10774;42.178;26.578;2022-09-09T05:33:46;9.75;;;4.15;;
21233;SDS011;10774;42.178;26.578;2022-09-09T05:36:15;4.60;;;3.25;;
21233;SDS011;10774;42.178;26.578;2022-09-09T05:38:42;11.80;;;4.15;;
21233;SDS011;10774;42.178;26.578;2022-09-09T05:41:08;10.57;;;4.25;;
21233;SDS011;10774;42.178;26.578;2022-09-09T05:43:36;7.35;;;3.10;;
21233;SDS011;10774;42.178;26.578;2022-09-09T05:46:08;8.20;;;3.65;;
21233;SDS011;10774;42.178;26.578;2022-09-09T05:48:37;8.13;;;3.63;;
21233;SDS011;10774;42.178;26.578;2022-09-09T05:51:04;6.95;;;3.60;;
21233;SDS011;10774;42.178;26.578;2022-09-09T05:53:34;9.48;;;3.22;;
21233;SDS011;10774;42.178;26.578;2022-09-09T05:56:00;7.30;;;3.00;;
21233;SDS011;10774;42.178;26.578;2022-09-09T05:58:28;6.40;;;2.53;;
21233;SDS011;10774;42.178;26.578;2022-09-09T06:01:04;3.78;;;2.70;;
21233;SDS011;10774;42.178;26.578;2022-09-09T06:03:35;8.18;;;2.45;;
21233;SDS011;10774;42.178;26.578;2022-09-09T06:06:03;5.65;;;2.90;;
21233;SDS011;10774;42.178;26.578;2022-09-09T06:08:30;6.35;;;3.25;;
21233;SDS011;10774;42.178;26.578;2022-09-09T06:11:03;4.75;;;3.35;;
21233;SDS011;10774;42.178;26.578;2022-09-09T06:13:33;6.80;;;3.65;;
21233;SDS011;10774;42.178;26.578;2022-09-09T06:16:00;8.95;;;3.88;;
21233;SDS011;10774;42.178;26.578;2022-09-09T06:18:26;9.02;;;4.00;;
21233;SDS011;10774;42.178;26.578;2022-09-09T06:20:55;6.45;;;3.22;;
21233;SDS011;10774;42.178;26.578;2022-09-09T06:23:29;6.25;;;2.95;;
21233;SDS011;10774;42.178;26.578;2022-09-09T06:26:05;6.28;;;3.15;;
21233;SDS011;10774;42.178;26.578;2022-09-09T06:28:31;4.97;;;2.60;;
21233;SDS011;10774;42.178;26.578;2022-09-09T06:31:00;8.10;;;3.08;;
21233;SDS011;10774;42.178;26.578;2022-09-09T06:33:30;10.25;;;2.50;;
21233;SDS011;10774;42.178;26.578;2022-09-09T06:35:57;9.68;;;2.67;;
21233;SDS011;10774;42.178;26.578;2022-09-09T06:38:23;8.18;;;2.55;;
21233;SDS011;10774;42.178;26.578;2022-09-09T06:40:55;8.10;;;2.20;;
21233;SDS011;10774;42.178;26.578;2022-09-09T06:43:23;7.13;;;2.00;;
21233;SDS011;10774;42.178;26.578;2022-09-09T06:45:56;4.50;;;2.15;;
21233;SDS011;10774;42.178;26.578;2022-09-09T06:48:25;6.95;;;2.20;;
21233;SDS011;10774;42.178;26.578;2022-09-09T06:51:06;4.65;;;1.65;;
21233;SDS011;10774;42.178;26.578;2022-09-09T06:53:39;4.13;;;2.03;;
21233;SDS011;10774;42.178;26.578;2022-09-09T06:58:34;3.60;;;1.40;;
21233;SDS011;10774;42.178;26.578;2022-09-09T07:01:04;3.67;;;1.30;;
21233;SDS011;10774;42.178;26.578;2022-09-09T07:03:31;3.35;;;1.38;;
21233;SDS011;10774;42.178;26.578;2022-09-09T07:05:56;5.32;;;1.30;;
21233;SDS011;10774;42.178;26.578;2022-09-09T07:08:22;4.95;;;1.58;;
21233;SDS011;10774;42.178;26.578;2022-09-09T07:10:50;3.28;;;1.25;;
21233;SDS011;10774;42.178;26.578;2022-09-09T07:13:27;2.83;;;1.23;;
21233;SDS011;10774;42.178;26.578;2022-09-09T07:15:53;3.80;;;1.70;;
21233;SDS011;10774;42.178;26.578;2022-09-09T07:18:19;7.82;;;1.50;;
21233;SDS011;10774;42.178;26.578;2022-09-09T07:20:53;2.83;;;1.40;;
21233;SDS011;10774;42.178;26.578;2022-09-09T07:23:20;4.00;;;1.40;;
21233;SDS011;10774;42.178;26.578;2022-09-09T07:25:45;5.03;;;1.55;;
21233;SDS011;10774;42.178;26.578;2022-09-09T07:28:11;3.83;;;1.48;;
21233;SDS011;10774;42.178;26.578;2022-09-09T07:30:36;6.30;;;1.10;;
21233;SDS011;10774;42.178;26.578;2022-09-09T07:33:01;5.28;;;1.30;;
21233;SDS011;10774;42.178;26.578;2022-09-09T07:35:28;12.55;;;1.60;;
21233;SDS011;10774;42.178;26.578;2022-09-09T07:37:54;3.50;;;1.30;;
21233;SDS011;10774;42.178;26.578;2022-09-09T07:40:19;4.38;;;1.30;;
21233;SDS011;10774;42.178;26.578;2022-09-09T07:42:46;4.45;;;1.23;;
21233;SDS011;10774;42.178;26.578;2022-09-09T07:45:12;17.48;;;2.25;;
21233;SDS011;10774;42.178;26.578;2022-09-09T07:47:39;4.10;;;1.33;;
21233;SDS011;10774;42.178;26.578;2022-09-09T07:50:07;4.30;;;1.52;;
21233;SDS011;10774;42.178;26.578;2022-09-09T07:52:34;2.58;;;0.90;;
21233;SDS011;10774;42.178;26.578;2022-09-09T07:54:59;6.20;;;1.42;;
21233;SDS011;10774;42.178;26.578;2022-09-09T07:57:27;1.52;;;0.80;;
21233;SDS011;10774;42.178;26.578;2022-09-09T07:59:55;1.98;;;0.70;;
21233;SDS011;10774;42.178;26.578;2022-09-09T08:02:21;1.75;;;0.65;;
21233;SDS011;10774;42.178;26.578;2022-09-09T08:04:48;6.53;;;0.90;;
21233;SDS011;10774;42.178;26.578;2022-09-09T08:07:14;3.40;;;0.88;;
21233;SDS011;10774;42.178;26.578;2022-09-09T08:09:39;4.38;;;1.10;;
21233;SDS011;10774;42.178;26.578;2022-09-09T08:12:05;3.25;;;0.80;;
21233;SDS011;10774;42.178;26.578;2022-09-09T08:14:32;2.58;;;1.40;;
21233;SDS011;10774;42.178;26.578;2022-09-09T08:16:57;3.30;;;0.90;;
21233;SDS011;10774;42.178;26.578;2022-09-09T08:19:23;3.85;;;1.08;;
21233;SDS011;10774;42.178;26.578;2022-09-09T08:21:48;3.13;;;0.85;;
21233;SDS011;10774;42.178;26.578;2022-09-09T08:24:14;2.78;;;0.77;;
21233;SDS011;10774;42.178;26.578;2022-09-09T08:26:41;3.72;;;0.90;;
21233;SDS011;10774;42.178;26.578;2022-09-09T08:29:08;2.95;;;1.27;;
21233;SDS011;10774;42.178;26.578;2022-09-09T08:31:40;4.07;;;0.70;;
21233;SDS011;10774;42.178;26.578;2022-09-09T08:34:06;5.50;;;1.17;;
21233;SDS011;10774;42.178;26.578;2022-09-09T08:36:33;2.20;;;0.80;;
21233;SDS011;10774;42.178;26.578;2022-09-09T08:39:02;4.93;;;0.98;;
21233;SDS011;10774;42.178;26.578;2022-09-09T08:52:16;3.90;;;1.10;;
21233;SDS011;10774;42.178;26.578;2022-09-09T08:55:11;3.47;;;0.80;;
21233;SDS011;10774;42.178;26.578;2022-09-09T08:57:38;2.17;;;0.82;;
21233;SDS011;10774;42.178;26.578;2022-09-09T09:00:04;4.25;;;0.80;;
21233;SDS011;10774;42.178;26.578;2022-09-09T09:02:55;3.60;;;0.73;;
21233;SDS011;10774;42.178;26.578;2022-09-09T09:05:23;1.77;;;0.77;;
21233;SDS011;10774;42.178;26.578;2022-09-09T09:10:50;3.65;;;0.93;;
21233;SDS011;10774;42.178;26.578;2022-09-09T09:16:22;2.30;;;1.13;;
21233;SDS011;10774;42.178;26.578;2022-09-09T09:19:12;2.30;;;1.20;;
21233;SDS011;10774;42.178;26.578;2022-09-09T09:21:43;4.40;;;1.10;;
21233;SDS011;10774;42.178;26.578;2022-09-09T09:26:40;2.38;;;1.30;;
21233;SDS011;10774;42.178;26.578;2022-09-09T09:29:12;3.55;;;1.33;;
21233;SDS011;10774;42.178;26.578;2022-09-09T09:31:42;3.40;;;1.33;;
21233;SDS011;10774;42.178;26.578;2022-09-09T09:34:10;4.32;;;1.40;;
21233;SDS011;10774;42.178;26.578;2022-09-09T09:36:41;1.65;;;0.90;;
21233;SDS011;10774;42.178;26.578;2022-09-09T09:41:50;3.03;;;0.90;;
21233;SDS011;10774;42.178;26.578;2022-09-09T09:44:26;4.20;;;0.90;;
21233;SDS011;10774;42.178;26.578;2022-09-09T09:47:04;2.45;;;1.05;;
21233;SDS011;10774;42.178;26.578;2022-09-09T09:49:36;3.75;;;1.08;;
21233;SDS011;10774;42.178;26.578;2022-09-09T09:52:05;1.77;;;1.05;;
21233;SDS011;10774;42.178;26.578;2022-09-09T09:54:39;3.35;;;1.30;;
21233;SDS011;10774;42.178;26.578;2022-09-09T09:57:08;3.85;;;1.48;;
21233;SDS011;10774;42.178;26.578;2022-09-09T09:59:39;3.25;;;1.10;;
21233;SDS011;10774;42.178;26.578;2022-09-09T10:04:39;5.90;;;1.70;;
21233;SDS011;10774;42.178;26.578;2022-09-09T10:07:13;3.33;;;1.00;;
21233;SDS011;10774;42.178;26.578;2022-09-09T10:09:44;3.85;;;1.52;;
21233;SDS011;10774;42.178;26.578;2022-09-09T10:12:14;4.50;;;1.48;;
21233;SDS011;10774;42.178;26.578;2022-09-09T10:14:45;2.33;;;1.80;;
21233;SDS011;10774;42.178;26.578;2022-09-09T10:22:35;5.28;;;1.30;;
21233;SDS011;10774;42.178;26.578;2022-09-09T10:36:29;3.75;;;1.50;;
21233;SDS011;10774;42.178;26.578;2022-09-09T10:44:42;4.90;;;1.35;;
21233;SDS011;10774;42.178;26.578;2022-09-09T10:55:25;3.10;;;1.45;;
21233;SDS011;10774;42.178;26.578;2022-09-09T10:57:56;2.00;;;1.23;;
21233;SDS011;10774;42.178;26.578;2022-09-09T11:00:37;5.63;;;1.60;;
21233;SDS011;10774;42.178;26.578;2022-09-09T11:03:25;3.58;;;1.67;;
21233;SDS011;10774;42.178;26.578;2022-09-09T11:06:00;2.85;;;1.30;;
21233;SDS011;10774;42.178;26.578;2022-09-09T11:08:30;4.88;;;1.88;;
21233;SDS011;10774;42.178;26.578;2022-09-09T11:18:51;4.05;;;1.40;;
21233;SDS011;10774;42.178;26.578;2022-09-09T11:21:34;2.13;;;1.38;;
21233;SDS011;10774;42.178;26.578;2022-09-09T11:24:06;4.22;;;1.58;;
21233;SDS011;10774;42.178;26.578;2022-09-09T11:40:30;2.60;;;1.35;;
21233;SDS011;10774;42.178;26.578;2022-09-09T11:43:08;10.02;;;1.73;;
21233;SDS011;10774;42.178;26.578;2022-09-09T11:45:37;3.28;;;1.25;;
21233;SDS011;10774;42.178;26.578;2022-09-09T11:48:05;3.25;;;1.50;;
21233;SDS011;10774;42.178;26.578;2022-09-09T11:56:45;1.98;;;1.23;;
21233;SDS011;10774;42.178;26.578;2022-09-09T11:59:19;2.28;;;1.42;;
21233;SDS011;10774;42.178;26.578;2022-09-09T12:02:08;3.63;;;1.55;;
21233;SDS011;10774;42.178;26.578;2022-09-09T12:04:53;1.35;;;1.20;;
21233;SDS011;10774;42.178;26.578;2022-09-09T12:10:03;9.27;;;2.10;;
21233;SDS011;10774;42.178;26.578;2022-09-09T12:12:47;2.80;;;1.20;;
21233;SDS011;10774;42.178;26.578;2022-09-09T12:17:54;3.63;;;1.10;;
21233;SDS011;10774;42.178;26.578;2022-09-09T12:28:39;3.88;;;0.93;;
21233;SDS011;10774;42.178;26.578;2022-09-09T12:33:47;4.97;;;1.25;;
21233;SDS011;10774;42.178;26.578;2022-09-09T12:36:14;2.55;;;1.20;;
21233;SDS011;10774;42.178;26.578;2022-09-09T12:38:44;2.55;;;1.02;;
21233;SDS011;10774;42.178;26.578;2022-09-09T12:41:24;3.08;;;0.95;;
21233;SDS011;10774;42.178;26.578;2022-09-09T12:43:50;3.63;;;1.23;;
21233;SDS011;10774;42.178;26.578;2022-09-09T12:48:54;4.53;;;1.02;;
21233;SDS011;10774;42.178;26.578;2022-09-09T12:51:40;2.53;;;1.38;;
21233;SDS011;10774;42.178;26.578;2022-09-09T12:54:12;2.75;;;1.20;;
21233;SDS011;10774;42.178;26.578;2022-09-09T12:56:39;2.05;;;1.00;;
21233;SDS011;10774;42.178;26.578;2022-09-09T12:59:17;1.45;;;0.77;;
21233;SDS011;10774;42.178;26.578;2022-09-09T13:01:54;3.10;;;1.35;;
21233;SDS011;10774;42.178;26.578;2022-09-09T13:04:21;2.75;;;1.33;;
21233;SDS011;10774;42.178;26.578;2022-09-09T13:06:47;4.00;;;1.30;;
21233;SDS011;10774;42.178;26.578;2022-09-09T13:09:14;1.92;;;1.23;;
21233;SDS011;10774;42.178;26.578;2022-09-09T13:11:44;1.67;;;0.95;;
21233;SDS011;10774;42.178;26.578;2022-09-09T13:14:18;5.40;;;1.20;;
21233;SDS011;10774;42.178;26.578;2022-09-09T13:16:57;1.63;;;1.08;;
21233;SDS011;10774;42.178;26.578;2022-09-09T13:19:24;3.20;;;1.10;;
21233;SDS011;10774;42.178;26.578;2022-09-09T13:21:54;1.90;;;1.08;;
21233;SDS011;10774;42.178;26.578;2022-09-09T13:24:23;2.97;;;1.20;;
21233;SDS011;10774;42.178;26.578;2022-09-09T13:27:00;1.90;;;0.90;;
21233;SDS011;10774;42.178;26.578;2022-09-09T13:29:28;1.58;;;0.98;;
21233;SDS011;10774;42.178;26.578;2022-09-09T13:32:03;3.72;;;1.10;;
21233;SDS011;10774;42.178;26.578;2022-09-09T13:34:49;3.63;;;1.23;;
21233;SDS011;10774;42.178;26.578;2022-09-09T13:40:02;4.20;;;1.40;;
21233;SDS011;10774;42.178;26.578;2022-09-09T13:42:31;2.10;;;1.20;;
21233;SDS011;10774;42.178;26.578;2022-09-09T13:45:00;2.38;;;1.02;;
21233;SDS011;10774;42.178;26.578;2022-09-09T13:49:54;8.05;;;1.05;;
21233;SDS011;10774;42.178;26.578;2022-09-09T13:52:19;3.65;;;1.15;;
21233;SDS011;10774;42.178;26.578;2022-09-09T13:54:50;2.40;;;1.23;;
21233;SDS011;10774;42.178;26.578;2022-09-09T13:57:21;3.47;;;1.15;;
21233;SDS011;10774;42.178;26.578;2022-09-09T13:59:49;2.03;;;0.95;;
21233;SDS011;10774;42.178;26.578;2022-09-09T14:02:15;3.58;;;1.00;;
21233;SDS011;10774;42.178;26.578;2022-09-09T14:04:41;1.45;;;0.90;;
21233;SDS011;10774;42.178;26.578;2022-09-09T14:07:14;2.63;;;1.10;;
21233;SDS011;10774;42.178;26.578;2022-09-09T14:09:43;3.80;;;0.95;;
21233;SDS011;10774;42.178;26.578;2022-09-09T14:12:09;3.83;;;1.10;;
21233;SDS011;10774;42.178;26.578;2022-09-09T14:14:36;3.78;;;0.90;;
21233;SDS011;10774;42.178;26.578;2022-09-09T14:17:01;3.28;;;1.20;;
21233;SDS011;10774;42.178;26.578;2022-09-09T14:19:28;2.45;;;1.30;;
21233;SDS011;10774;42.178;26.578;2022-09-09T14:21:54;7.00;;;1.33;;
21233;SDS011;10774;42.178;26.578;2022-09-09T14:24:19;26.45;;;2.70;;
21233;SDS011;10774;42.178;26.578;2022-09-09T14:26:45;4.90;;;1.38;;
21233;SDS011;10774;42.178;26.578;2022-09-09T14:29:10;4.32;;;1.33;;
21233;SDS011;10774;42.178;26.578;2022-09-09T14:31:35;2.70;;;1.38;;
21233;SDS011;10774;42.178;26.578;2022-09-09T14:34:01;1.80;;;1.20;;
21233;SDS011;10774;42.178;26.578;2022-09-09T14:36:26;6.20;;;1.20;;
21233;SDS011;10774;42.178;26.578;2022-09-09T14:38:51;6.72;;;1.45;;
21233;SDS011;10774;42.178;26.578;2022-09-09T14:41:18;3.15;;;0.90;;
21233;SDS011;10774;42.178;26.578;2022-09-09T14:43:44;3.70;;;0.95;;
21233;SDS011;10774;42.178;26.578;2022-09-09T14:46:11;2.28;;;1.00;;
21233;SDS011;10774;42.178;26.578;2022-09-09T14:48:39;2.10;;;1.00;;
21233;SDS011;10774;42.178;26.578;2022-09-09T14:51:09;4.72;;;1.48;;
21233;SDS011;10774;42.178;26.578;2022-09-09T14:53:37;4.50;;;1.15;;
21233;SDS011;10774;42.178;26.578;2022-09-09T14:56:05;2.17;;;1.00;;
21233;SDS011;10774;42.178;26.578;2022-09-09T14:58:39;1.77;;;1.00;;
21233;SDS011;10774;42.178;26.578;2022-09-09T15:01:05;4.50;;;1.10;;
21233;SDS011;10774;42.178;26.578;2022-09-09T15:03:38;1.95;;;1.33;;
21233;SDS011;10774;42.178;26.578;2022-09-09T15:06:08;3.03;;;1.25;;
21233;SDS011;10774;42.178;26.578;2022-09-09T15:08:36;2.92;;;1.20;;
21233;SDS011;10774;42.178;26.578;2022-09-09T15:11:02;2.05;;;1.00;;
21233;SDS011;10774;42.178;26.578;2022-09-09T15:13:29;2.13;;;1.30;;
21233;SDS011;10774;42.178;26.578;2022-09-09T15:15:55;4.82;;;1.95;;
21233;SDS011;10774;42.178;26.578;2022-09-09T15:18:21;4.13;;;1.50;;
21233;SDS011;10774;42.178;26.578;2022-09-09T15:20:46;3.60;;;2.00;;
21233;SDS011;10774;42.178;26.578;2022-09-09T15:23:12;5.40;;;3.00;;
21233;SDS011;10774;42.178;26.578;2022-09-09T15:25:39;9.48;;;5.00;;
21233;SDS011;10774;42.178;26.578;2022-09-09T15:28:14;6.30;;;2.03;;
21233;SDS011;10774;42.178;26.578;2022-09-09T15:30:40;11.05;;;5.32;;
21233;SDS011;10774;42.178;26.578;2022-09-09T15:33:07;17.38;;;11.80;;
21233;SDS011;10774;42.178;26.578;2022-09-09T15:35:33;32.03;;;22.35;;
21233;SDS011;10774;42.178;26.578;2022-09-09T15:38:01;37.28;;;25.70;;
21233;SDS011;10774;42.178;26.578;2022-09-09T15:40:28;11.00;;;6.32;;
21233;SDS011;10774;42.178;26.578;2022-09-09T15:42:53;12.85;;;8.77;;
21233;SDS011;10774;42.178;26.578;2022-09-09T15:45:19;6.93;;;3.70;;
21233;SDS011;10774;42.178;26.578;2022-09-09T15:47:46;7.40;;;2.47;;
21233;SDS011;10774;42.178;26.578;2022-09-09T15:50:12;3.25;;;1.40;;
21233;SDS011;10774;42.178;26.578;2022-09-09T15:52:37;6.25;;;2.97;;
21233;SDS011;10774;42.178;26.578;2022-09-09T15:55:03;9.88;;;5.30;;
21233;SDS011;10774;42.178;26.578;2022-09-09T15:57:28;2.58;;;1.25;;
21233;SDS011;10774;42.178;26.578;2022-09-09T15:59:54;5.35;;;1.63;;
21233;SDS011;10774;42.178;26.578;2022-09-09T16:02:19;4.85;;;1.30;;
21233;SDS011;10774;42.178;26.578;2022-09-09T16:04:45;6.75;;;1.40;;
21233;SDS011;10774;42.178;26.578;2022-09-09T16:07:10;5.38;;;1.65;;
21233;SDS011;10774;42.178;26.578;2022-09-09T16:09:36;7.88;;;1.48;;
21233;SDS011;10774;42.178;26.578;2022-09-09T16:12:02;3.90;;;1.38;;
21233;SDS011;10774;42.178;26.578;2022-09-09T16:14:34;5.65;;;1.40;;
21233;SDS011;10774;42.178;26.578;2022-09-09T16:17:01;2.15;;;1.10;;
21233;SDS011;10774;42.178;26.578;2022-09-09T16:19:27;5.38;;;1.30;;
21233;SDS011;10774;42.178;26.578;2022-09-09T16:21:53;4.15;;;1.35;;
21233;SDS011;10774;42.178;26.578;2022-09-09T16:24:19;6.80;;;1.45;;
21233;SDS011;10774;42.178;26.578;2022-09-09T16:26:48;5.53;;;1.55;;
21233;SDS011;10774;42.178;26.578;2022-09-09T16:29:16;4.57;;;1.50;;
21233;SDS011;10774;42.178;26.578;2022-09-09T16:31:43;8.90;;;3.95;;
21233;SDS011;10774;42.178;26.578;2022-09-09T16:34:09;12.57;;;8.10;;
21233;SDS011;10774;42.178;26.578;2022-09-09T16:36:36;24.60;;;15.57;;
21233;SDS011;10774;42.178;26.578;2022-09-09T16:39:06;30.98;;;19.88;;
21233;SDS011;10774;42.178;26.578;2022-09-09T16:41:42;25.83;;;14.93;;
21233;SDS011;10774;42.178;26.578;2022-09-09T16:44:10;23.80;;;16.33;;
21233;SDS011;10774;42.178;26.578;2022-09-09T16:46:38;19.83;;;13.52;;
21233;SDS011;10774;42.178;26.578;2022-09-09T16:49:06;45.92;;;27.50;;
21233;SDS011;10774;42.178;26.578;2022-09-09T16:51:37;33.42;;;22.52;;
21233;SDS011;10774;42.178;26.578;2022-09-09T16:54:05;27.58;;;17.65;;
21233;SDS011;10774;42.178;26.578;2022-09-09T16:56:32;31.98;;;19.23;;
21233;SDS011;10774;42.178;26.578;2022-09-09T16:59:03;17.58;;;8.75;;
21233;SDS011;10774;42.178;26.578;2022-09-09T17:01:34;12.45;;;6.43;;
21233;SDS011;10774;42.178;26.578;2022-09-09T17:04:06;7.50;;;3.92;;
21233;SDS011;10774;42.178;26.578;2022-09-09T17:06:38;6.70;;;2.00;;
21233;SDS011;10774;42.178;26.578;2022-09-09T17:09:05;5.80;;;1.60;;
21233;SDS011;10774;42.178;26.578;2022-09-09T17:11:32;3.30;;;1.65;;
21233;SDS011;10774;42.178;26.578;2022-09-09T17:13:58;6.60;;;1.38;;
21233;SDS011;10774;42.178;26.578;2022-09-09T17:16:25;2.70;;;1.00;;
21233;SDS011;10774;42.178;26.578;2022-09-09T17:18:53;5.68;;;1.63;;
21233;SDS011;10774;42.178;26.578;2022-09-09T17:21:20;3.17;;;1.95;;
21233;SDS011;10774;42.178;26.578;2022-09-09T17:23:48;2.80;;;1.60;;